sensor_id;sensor_type;location;lat;lon;timestamp;P1;durP1;ratioP1;P2;durP2;ratioP2
4634;SDS011;2330;48.158;11.816;2023-04-22T00:02:14;2.03;;;1.93;;
4634;SDS011;2330;48.158;11.816;2023-04-22T00:04:42;2.67;;;2.47;;
4634;SDS011;2330;48.158;11.816;2023-04-22T00:07:13;2.43;;;2.23;;
4634;SDS011;2330;48.158;11.816;2023-04-22T00:09:41;3.23;;;2.83;;
4634;SDS011;2330;48.158;11.816;2023-04-22T00:12:08;2.80;;;2.60;;
4634;SDS011;2330;48.158;11.816;2023-04-22T00:14:36;3.90;;;2.53;;
4634;SDS011;2330;48.158;11.816;2023-04-22T00:17:04;3.60;;;3.30;;
4634;SDS011;2330;48.158;11.816;2023-04-22T00:19:32;5.20;;;3.07;;
4634;SDS011;2330;48.158;11.816;2023-04-22T00:22:00;2.80;;;2.60;;
4634;SDS011;2330;48.158;11.816;2023-04-22T00:24:26;3.13;;;2.33;;
4634;SDS011;2330;48.158;11.816;2023-04-22T00:26:54;2.60;;;2.33;;
4634;SDS011;2330;48.158;11.816;2023-04-22T00:29:20;2.23;;;2.03;;
4634;SDS011;2330;48.158;11.816;2023-04-22T00:31:47;2.80;;;2.50;;
4634;SDS011;2330;48.158;11.816;2023-04-22T00:34:14;2.93;;;2.20;;
4634;SDS011;2330;48.158;11.816;2023-04-22T00:36:43;2.53;;;2.27;;
4634;SDS011;2330;48.158;11.816;2023-04-22T00:39:10;2.90;;;2.60;;
4634;SDS011;2330;48.158;11.816;2023-04-22T00:41:38;3.03;;;2.40;;
4634;SDS011;2330;48.158;11.816;2023-04-22T00:44:07;2.37;;;2.17;;
4634;SDS011;2330;48.158;11.816;2023-04-22T00:46:36;2.50;;;2.13;;
4634;SDS011;2330;48.158;11.816;2023-04-22T00:49:06;2.20;;;2.10;;
4634;SDS011;2330;48.158;11.816;2023-04-22T00:51:33;2.77;;;2.40;;
4634;SDS011;2330;48.158;11.816;2023-04-22T00:54:00;3.03;;;2.83;;
4634;SDS011;2330;48.158;11.816;2023-04-22T00:56:28;3.30;;;2.97;;
4634;SDS011;2330;48.158;11.816;2023-04-22T00:58:56;3.00;;;2.67;;
4634;SDS011;2330;48.158;11.816;2023-04-22T01:01:24;1.90;;;1.80;;
4634;SDS011;2330;48.158;11.816;2023-04-22T01:03:51;2.43;;;2.00;;
4634;SDS011;2330;48.158;11.816;2023-04-22T01:06:19;3.10;;;2.07;;
4634;SDS011;2330;48.158;11.816;2023-04-22T01:08:47;2.50;;;2.30;;
4634;SDS011;2330;48.158;11.816;2023-04-22T01:11:14;2.30;;;2.10;;
4634;SDS011;2330;48.158;11.816;2023-04-22T01:13:41;2.13;;;2.03;;
4634;SDS011;2330;48.158;11.816;2023-04-22T01:16:09;2.77;;;2.47;;
4634;SDS011;2330;48.158;11.816;2023-04-22T01:18:37;2.40;;;2.20;;
4634;SDS011;2330;48.158;11.816;2023-04-22T01:21:04;2.70;;;2.50;;
4634;SDS011;2330;48.158;11.816;2023-04-22T01:23:32;3.10;;;2.90;;
4634;SDS011;2330;48.158;11.816;2023-04-22T01:25:59;2.50;;;2.30;;
4634;SDS011;2330;48.158;11.816;2023-04-22T01:28:26;3.23;;;2.90;;
4634;SDS011;2330;48.158;11.816;2023-04-22T01:30:54;3.47;;;2.40;;
4634;SDS011;2330;48.158;11.816;2023-04-22T01:33:21;2.63;;;2.43;;
4634;SDS011;2330;48.158;11.816;2023-04-22T01:35:49;8.00;;;2.50;;
4634;SDS011;2330;48.158;11.816;2023-04-22T01:38:15;2.07;;;1.97;;
4634;SDS011;2330;48.158;11.816;2023-04-22T01:40:42;4.30;;;2.47;;
4634;SDS011;2330;48.158;11.816;2023-04-22T01:43:09;2.60;;;2.40;;
4634;SDS011;2330;48.158;11.816;2023-04-22T01:45:36;2.53;;;2.43;;
4634;SDS011;2330;48.158;11.816;2023-04-22T01:48:03;2.40;;;2.20;;
4634;SDS011;2330;48.158;11.816;2023-04-22T01:50:32;3.07;;;2.60;;
4634;SDS011;2330;48.158;11.816;2023-04-22T01:52:58;2.50;;;2.30;;
4634;SDS011;2330;48.158;11.816;2023-04-22T01:55:25;2.80;;;2.47;;
4634;SDS011;2330;48.158;11.816;2023-04-22T01:57:52;4.60;;;3.30;;
4634;SDS011;2330;48.158;11.816;2023-04-22T02:00:19;2.57;;;2.37;;
4634;SDS011;2330;48.158;11.816;2023-04-22T02:02:46;3.00;;;2.70;;
4634;SDS011;2330;48.158;11.816;2023-04-22T02:05:13;2.83;;;2.63;;
4634;SDS011;2330;48.158;11.816;2023-04-22T02:07:41;7.73;;;3.03;;
4634;SDS011;2330;48.158;11.816;2023-04-22T02:10:07;2.97;;;2.77;;
4634;SDS011;2330;48.158;11.816;2023-04-22T02:12:35;2.90;;;2.70;;
4634;SDS011;2330;48.158;11.816;2023-04-22T02:15:01;9.23;;;3.03;;
4634;SDS011;2330;48.158;11.816;2023-04-22T02:17:28;3.20;;;2.90;;
4634;SDS011;2330;48.158;11.816;2023-04-22T02:19:55;2.70;;;2.50;;
4634;SDS011;2330;48.158;11.816;2023-04-22T02:22:22;3.33;;;3.03;;
4634;SDS011;2330;48.158;11.816;2023-04-22T02:24:49;4.43;;;2.90;;
4634;SDS011;2330;48.158;11.816;2023-04-22T02:27:16;5.23;;;2.70;;
4634;SDS011;2330;48.158;11.816;2023-04-22T02:29:42;2.90;;;2.70;;
4634;SDS011;2330;48.158;11.816;2023-04-22T02:32:09;3.20;;;2.90;;
4634;SDS011;2330;48.158;11.816;2023-04-22T02:34:36;3.47;;;3.20;;
4634;SDS011;2330;48.158;11.816;2023-04-22T02:37:06;3.37;;;3.07;;
4634;SDS011;2330;48.158;11.816;2023-04-22T02:39:32;3.10;;;2.67;;
4634;SDS011;2330;48.158;11.816;2023-04-22T02:41:59;2.70;;;2.47;;
4634;SDS011;2330;48.158;11.816;2023-04-22T02:44:26;3.20;;;3.00;;
4634;SDS011;2330;48.158;11.816;2023-04-22T02:46:53;3.60;;;3.30;;
4634;SDS011;2330;48.158;11.816;2023-04-22T02:49:20;3.10;;;2.90;;
4634;SDS011;2330;48.158;11.816;2023-04-22T02:51:47;4.90;;;3.10;;
4634;SDS011;2330;48.158;11.816;2023-04-22T02:54:14;2.83;;;2.63;;
4634;SDS011;2330;48.158;11.816;2023-04-22T02:56:41;3.70;;;3.40;;
4634;SDS011;2330;48.158;11.816;2023-04-22T02:59:07;3.57;;;3.27;;
4634;SDS011;2330;48.158;11.816;2023-04-22T03:01:34;3.47;;;3.17;;
4634;SDS011;2330;48.158;11.816;2023-04-22T03:04:01;4.53;;;2.60;;
4634;SDS011;2330;48.158;11.816;2023-04-22T03:06:30;3.20;;;3.00;;
4634;SDS011;2330;48.158;11.816;2023-04-22T03:08:57;3.80;;;3.60;;
4634;SDS011;2330;48.158;11.816;2023-04-22T03:11:24;3.60;;;3.40;;
4634;SDS011;2330;48.158;11.816;2023-04-22T03:13:51;3.30;;;3.10;;
4634;SDS011;2330;48.158;11.816;2023-04-22T03:16:18;6.27;;;3.40;;
4634;SDS011;2330;48.158;11.816;2023-04-22T03:18:48;4.30;;;3.90;;
4634;SDS011;2330;48.158;11.816;2023-04-22T03:21:14;5.40;;;3.57;;
4634;SDS011;2330;48.158;11.816;2023-04-22T03:23:41;4.27;;;3.97;;
4634;SDS011;2330;48.158;11.816;2023-04-22T03:26:08;3.80;;;3.50;;
4634;SDS011;2330;48.158;11.816;2023-04-22T03:28:35;4.17;;;3.87;;
4634;SDS011;2330;48.158;11.816;2023-04-22T03:31:02;4.60;;;4.30;;
4634;SDS011;2330;48.158;11.816;2023-04-22T03:33:29;5.03;;;4.63;;
4634;SDS011;2330;48.158;11.816;2023-04-22T03:35:55;4.80;;;4.40;;
4634;SDS011;2330;48.158;11.816;2023-04-22T03:38:22;3.93;;;3.63;;
4634;SDS011;2330;48.158;11.816;2023-04-22T03:40:49;4.40;;;4.10;;
4634;SDS011;2330;48.158;11.816;2023-04-22T03:43:17;4.90;;;4.50;;
4634;SDS011;2330;48.158;11.816;2023-04-22T03:45:43;5.00;;;4.50;;
4634;SDS011;2330;48.158;11.816;2023-04-22T03:48:10;6.20;;;5.57;;
4634;SDS011;2330;48.158;11.816;2023-04-22T03:50:37;5.40;;;4.90;;
4634;SDS011;2330;48.158;11.816;2023-04-22T03:53:04;4.53;;;4.20;;
4634;SDS011;2330;48.158;11.816;2023-04-22T03:55:31;5.17;;;4.40;;
4634;SDS011;2330;48.158;11.816;2023-04-22T03:57:58;5.03;;;4.40;;
4634;SDS011;2330;48.158;11.816;2023-04-22T04:00:25;5.93;;;4.20;;
4634;SDS011;2330;48.158;11.816;2023-04-22T04:02:51;6.53;;;4.10;;
4634;SDS011;2330;48.158;11.816;2023-04-22T04:05:18;4.30;;;4.00;;
4634;SDS011;2330;48.158;11.816;2023-04-22T04:07:45;4.60;;;4.20;;
4634;SDS011;2330;48.158;11.816;2023-04-22T04:10:12;4.70;;;4.30;;
4634;SDS011;2330;48.158;11.816;2023-04-22T04:12:39;4.07;;;3.77;;
4634;SDS011;2330;48.158;11.816;2023-04-22T04:15:06;4.47;;;3.60;;
4634;SDS011;2330;48.158;11.816;2023-04-22T04:17:33;4.10;;;3.80;;
4634;SDS011;2330;48.158;11.816;2023-04-22T04:19:59;4.90;;;3.63;;
4634;SDS011;2330;48.158;11.816;2023-04-22T04:22:26;4.40;;;4.00;;
4634;SDS011;2330;48.158;11.816;2023-04-22T04:24:54;5.60;;;3.97;;
4634;SDS011;2330;48.158;11.816;2023-04-22T04:27:21;4.07;;;3.77;;
4634;SDS011;2330;48.158;11.816;2023-04-22T04:29:49;4.10;;;3.73;;
4634;SDS011;2330;48.158;11.816;2023-04-22T04:32:15;4.07;;;3.77;;
4634;SDS011;2330;48.158;11.816;2023-04-22T04:34:43;4.57;;;4.20;;
4634;SDS011;2330;48.158;11.816;2023-04-22T04:37:10;4.10;;;3.80;;
4634;SDS011;2330;48.158;11.816;2023-04-22T04:39:37;4.23;;;3.77;;
4634;SDS011;2330;48.158;11.816;2023-04-22T04:42:05;5.63;;;4.53;;
4634;SDS011;2330;48.158;11.816;2023-04-22T04:44:32;4.00;;;3.70;;
4634;SDS011;2330;48.158;11.816;2023-04-22T04:46:59;6.97;;;4.37;;
4634;SDS011;2330;48.158;11.816;2023-04-22T04:49:26;4.37;;;3.97;;
4634;SDS011;2330;48.158;11.816;2023-04-22T04:51:58;4.03;;;3.73;;
4634;SDS011;2330;48.158;11.816;2023-04-22T04:54:27;6.30;;;4.37;;
4634;SDS011;2330;48.158;11.816;2023-04-22T04:56:53;4.73;;;3.57;;
4634;SDS011;2330;48.158;11.816;2023-04-22T04:59:20;4.20;;;3.30;;
4634;SDS011;2330;48.158;11.816;2023-04-22T05:01:47;3.30;;;3.10;;
4634;SDS011;2330;48.158;11.816;2023-04-22T05:04:14;3.20;;;3.00;;
4634;SDS011;2330;48.158;11.816;2023-04-22T05:06:41;3.57;;;3.33;;
4634;SDS011;2330;48.158;11.816;2023-04-22T05:09:08;3.13;;;2.93;;
4634;SDS011;2330;48.158;11.816;2023-04-22T05:11:35;2.70;;;2.50;;
4634;SDS011;2330;48.158;11.816;2023-04-22T05:14:02;2.90;;;2.70;;
4634;SDS011;2330;48.158;11.816;2023-04-22T05:16:29;3.97;;;2.67;;
4634;SDS011;2330;48.158;11.816;2023-04-22T05:18:56;3.00;;;2.80;;
4634;SDS011;2330;48.158;11.816;2023-04-22T05:21:22;4.07;;;2.57;;
4634;SDS011;2330;48.158;11.816;2023-04-22T05:23:49;1.93;;;1.83;;
4634;SDS011;2330;48.158;11.816;2023-04-22T05:26:16;7.03;;;3.40;;
4634;SDS011;2330;48.158;11.816;2023-04-22T05:28:43;2.87;;;2.17;;
4634;SDS011;2330;48.158;11.816;2023-04-22T05:31:09;2.57;;;2.20;;
4634;SDS011;2330;48.158;11.816;2023-04-22T05:33:36;3.70;;;2.07;;
4634;SDS011;2330;48.158;11.816;2023-04-22T05:36:03;2.47;;;2.30;;
4634;SDS011;2330;48.158;11.816;2023-04-22T05:38:30;2.47;;;2.37;;
4634;SDS011;2330;48.158;11.816;2023-04-22T05:40:57;2.10;;;2.00;;
4634;SDS011;2330;48.158;11.816;2023-04-22T05:43:24;2.57;;;2.37;;
4634;SDS011;2330;48.158;11.816;2023-04-22T05:45:50;2.03;;;1.87;;
4634;SDS011;2330;48.158;11.816;2023-04-22T05:48:17;2.10;;;1.87;;
4634;SDS011;2330;48.158;11.816;2023-04-22T05:50:44;2.33;;;1.83;;
4634;SDS011;2330;48.158;11.816;2023-04-22T05:53:11;3.07;;;1.97;;
4634;SDS011;2330;48.158;11.816;2023-04-22T05:55:37;2.10;;;1.80;;
4634;SDS011;2330;48.158;11.816;2023-04-22T05:58:04;2.83;;;2.37;;
4634;SDS011;2330;48.158;11.816;2023-04-22T06:00:31;1.67;;;1.57;;
4634;SDS011;2330;48.158;11.816;2023-04-22T06:02:57;2.97;;;1.50;;
4634;SDS011;2330;48.158;11.816;2023-04-22T06:05:24;1.80;;;1.70;;
4634;SDS011;2330;48.158;11.816;2023-04-22T06:07:51;2.60;;;1.80;;
4634;SDS011;2330;48.158;11.816;2023-04-22T06:10:18;2.90;;;1.80;;
4634;SDS011;2330;48.158;11.816;2023-04-22T06:12:45;2.33;;;2.00;;
4634;SDS011;2330;48.158;11.816;2023-04-22T06:15:11;1.07;;;1.07;;
4634;SDS011;2330;48.158;11.816;2023-04-22T06:17:38;2.80;;;1.30;;
4634;SDS011;2330;48.158;11.816;2023-04-22T06:20:06;3.37;;;1.63;;
4634;SDS011;2330;48.158;11.816;2023-04-22T06:22:33;1.50;;;1.40;;
4634;SDS011;2330;48.158;11.816;2023-04-22T06:24:59;1.93;;;1.30;;
4634;SDS011;2330;48.158;11.816;2023-04-22T06:27:26;1.40;;;1.30;;
4634;SDS011;2330;48.158;11.816;2023-04-22T06:29:53;2.00;;;1.80;;
4634;SDS011;2330;48.158;11.816;2023-04-22T06:32:20;1.43;;;1.33;;
4634;SDS011;2330;48.158;11.816;2023-04-22T06:34:46;1.60;;;1.50;;
4634;SDS011;2330;48.158;11.816;2023-04-22T06:37:13;2.53;;;1.63;;
4634;SDS011;2330;48.158;11.816;2023-04-22T06:39:40;1.90;;;1.70;;
4634;SDS011;2330;48.158;11.816;2023-04-22T06:42:07;1.73;;;1.63;;
4634;SDS011;2330;48.158;11.816;2023-04-22T06:44:34;1.53;;;1.43;;
4634;SDS011;2330;48.158;11.816;2023-04-22T06:47:00;1.57;;;1.47;;
4634;SDS011;2330;48.158;11.816;2023-04-22T06:49:27;1.53;;;1.43;;
4634;SDS011;2330;48.158;11.816;2023-04-22T06:51:54;2.20;;;1.47;;
4634;SDS011;2330;48.158;11.816;2023-04-22T06:54:21;1.57;;;1.20;;
4634;SDS011;2330;48.158;11.816;2023-04-22T06:56:48;2.53;;;1.30;;
4634;SDS011;2330;48.158;11.816;2023-04-22T06:59:14;2.03;;;1.43;;
4634;SDS011;2330;48.158;11.816;2023-04-22T07:01:41;1.27;;;1.17;;
4634;SDS011;2330;48.158;11.816;2023-04-22T07:04:08;1.40;;;1.30;;
4634;SDS011;2330;48.158;11.816;2023-04-22T07:06:35;1.60;;;1.50;;
4634;SDS011;2330;48.158;11.816;2023-04-22T07:09:01;1.17;;;1.07;;
4634;SDS011;2330;48.158;11.816;2023-04-22T07:11:28;1.63;;;1.07;;
4634;SDS011;2330;48.158;11.816;2023-04-22T07:13:56;1.90;;;1.27;;
4634;SDS011;2330;48.158;11.816;2023-04-22T07:16:23;2.43;;;1.10;;
4634;SDS011;2330;48.158;11.816;2023-04-22T07:18:51;1.23;;;1.13;;
4634;SDS011;2330;48.158;11.816;2023-04-22T07:21:18;2.27;;;1.10;;
4634;SDS011;2330;48.158;11.816;2023-04-22T07:23:45;3.70;;;1.20;;
4634;SDS011;2330;48.158;11.816;2023-04-22T07:26:12;1.37;;;1.27;;
4634;SDS011;2330;48.158;11.816;2023-04-22T07:28:39;1.87;;;1.17;;
4634;SDS011;2330;48.158;11.816;2023-04-22T07:31:05;1.47;;;1.37;;
4634;SDS011;2330;48.158;11.816;2023-04-22T07:33:32;1.47;;;1.37;;
4634;SDS011;2330;48.158;11.816;2023-04-22T07:35:59;2.70;;;1.87;;
4634;SDS011;2330;48.158;11.816;2023-04-22T07:38:26;1.50;;;1.40;;
4634;SDS011;2330;48.158;11.816;2023-04-22T07:40:52;2.37;;;1.67;;
4634;SDS011;2330;48.158;11.816;2023-04-22T07:43:19;1.43;;;1.33;;
4634;SDS011;2330;48.158;11.816;2023-04-22T07:45:46;1.40;;;1.30;;
4634;SDS011;2330;48.158;11.816;2023-04-22T07:48:12;1.57;;;1.47;;
4634;SDS011;2330;48.158;11.816;2023-04-22T07:50:39;2.57;;;1.50;;
4634;SDS011;2330;48.158;11.816;2023-04-22T07:53:06;1.47;;;1.37;;
4634;SDS011;2330;48.158;11.816;2023-04-22T07:55:33;5.33;;;1.60;;
4634;SDS011;2330;48.158;11.816;2023-04-22T07:58:00;12.90;;;2.67;;
4634;SDS011;2330;48.158;11.816;2023-04-22T08:00:34;1.57;;;1.40;;
4634;SDS011;2330;48.158;11.816;2023-04-22T08:03:01;1.80;;;1.60;;
4634;SDS011;2330;48.158;11.816;2023-04-22T08:05:29;1.53;;;1.37;;
4634;SDS011;2330;48.158;11.816;2023-04-22T08:07:55;2.67;;;1.73;;
4634;SDS011;2330;48.158;11.816;2023-04-22T08:10:22;2.80;;;1.70;;
4634;SDS011;2330;48.158;11.816;2023-04-22T08:12:50;2.50;;;1.00;;
4634;SDS011;2330;48.158;11.816;2023-04-22T08:15:17;1.43;;;1.33;;
4634;SDS011;2330;48.158;11.816;2023-04-22T08:17:44;1.60;;;1.50;;
4634;SDS011;2330;48.158;11.816;2023-04-22T08:20:12;4.57;;;1.63;;
4634;SDS011;2330;48.158;11.816;2023-04-22T08:22:40;0.93;;;0.73;;
4634;SDS011;2330;48.158;11.816;2023-04-22T08:25:10;4.80;;;1.87;;
4634;SDS011;2330;48.158;11.816;2023-04-22T08:27:37;7.30;;;2.07;;
4634;SDS011;2330;48.158;11.816;2023-04-22T08:30:05;4.70;;;2.10;;
4634;SDS011;2330;48.158;11.816;2023-04-22T08:32:32;3.33;;;1.20;;
4634;SDS011;2330;48.158;11.816;2023-04-22T08:34:59;3.00;;;1.20;;
4634;SDS011;2330;48.158;11.816;2023-04-22T08:37:30;1.00;;;1.00;;
4634;SDS011;2330;48.158;11.816;2023-04-22T08:39:58;1.37;;;1.27;;
4634;SDS011;2330;48.158;11.816;2023-04-22T08:42:26;19.97;;;3.17;;
4634;SDS011;2330;48.158;11.816;2023-04-22T08:44:56;3.70;;;1.87;;
4634;SDS011;2330;48.158;11.816;2023-04-22T08:47:24;1.57;;;1.43;;
4634;SDS011;2330;48.158;11.816;2023-04-22T08:49:54;1.60;;;1.50;;
4634;SDS011;2330;48.158;11.816;2023-04-22T08:52:21;2.23;;;1.33;;
4634;SDS011;2330;48.158;11.816;2023-04-22T08:54:48;4.40;;;1.53;;
4634;SDS011;2330;48.158;11.816;2023-04-22T08:57:16;76.60;;;7.80;;
4634;SDS011;2330;48.158;11.816;2023-04-22T08:59:44;1.93;;;1.30;;
4634;SDS011;2330;48.158;11.816;2023-04-22T09:02:13;1.00;;;0.90;;
4634;SDS011;2330;48.158;11.816;2023-04-22T09:04:45;1.20;;;1.10;;
4634;SDS011;2330;48.158;11.816;2023-04-22T09:07:14;1.03;;;0.93;;
4634;SDS011;2330;48.158;11.816;2023-04-22T09:09:47;2.63;;;1.20;;
4634;SDS011;2330;48.158;11.816;2023-04-22T09:12:14;3.70;;;1.27;;
4634;SDS011;2330;48.158;11.816;2023-04-22T09:14:43;1.73;;;1.53;;
4634;SDS011;2330;48.158;11.816;2023-04-22T09:17:13;7.10;;;1.30;;
4634;SDS011;2330;48.158;11.816;2023-04-22T09:19:42;1.40;;;1.30;;
4634;SDS011;2330;48.158;11.816;2023-04-22T09:22:12;1.30;;;1.20;;
4634;SDS011;2330;48.158;11.816;2023-04-22T09:24:59;2.20;;;1.10;;
4634;SDS011;2330;48.158;11.816;2023-04-22T09:27:26;1.10;;;1.00;;
4634;SDS011;2330;48.158;11.816;2023-04-22T09:29:54;1.23;;;1.13;;
4634;SDS011;2330;48.158;11.816;2023-04-22T09:32:23;1.43;;;1.00;;
4634;SDS011;2330;48.158;11.816;2023-04-22T09:34:51;0.90;;;0.83;;
4634;SDS011;2330;48.158;11.816;2023-04-22T09:37:22;3.27;;;0.77;;
4634;SDS011;2330;48.158;11.816;2023-04-22T09:40:01;7.10;;;0.80;;
4634;SDS011;2330;48.158;11.816;2023-04-22T09:42:29;1.00;;;0.90;;
4634;SDS011;2330;48.158;11.816;2023-04-22T09:44:56;1.97;;;1.23;;
4634;SDS011;2330;48.158;11.816;2023-04-22T09:47:27;2.67;;;1.00;;
4634;SDS011;2330;48.158;11.816;2023-04-22T09:50:03;1.03;;;0.87;;
4634;SDS011;2330;48.158;11.816;2023-04-22T09:52:30;1.37;;;1.10;;
4634;SDS011;2330;48.158;11.816;2023-04-22T09:54:58;2.40;;;1.00;;
4634;SDS011;2330;48.158;11.816;2023-04-22T09:57:25;2.40;;;0.90;;
4634;SDS011;2330;48.158;11.816;2023-04-22T09:59:52;3.77;;;0.90;;
4634;SDS011;2330;48.158;11.816;2023-04-22T10:02:29;2.20;;;0.90;;
4634;SDS011;2330;48.158;11.816;2023-04-22T10:04:57;0.90;;;0.70;;
4634;SDS011;2330;48.158;11.816;2023-04-22T10:07:24;6.93;;;1.03;;
4634;SDS011;2330;48.158;11.816;2023-04-22T10:09:57;0.70;;;0.63;;
4634;SDS011;2330;48.158;11.816;2023-04-22T10:12:24;0.87;;;0.83;;
4634;SDS011;2330;48.158;11.816;2023-04-22T10:15:02;0.70;;;0.70;;
4634;SDS011;2330;48.158;11.816;2023-04-22T10:17:30;2.07;;;0.90;;
4634;SDS011;2330;48.158;11.816;2023-04-22T10:19:58;0.93;;;0.80;;
4634;SDS011;2330;48.158;11.816;2023-04-22T10:22:30;0.80;;;0.77;;
4634;SDS011;2330;48.158;11.816;2023-04-22T10:24:59;1.00;;;0.87;;
4634;SDS011;2330;48.158;11.816;2023-04-22T10:27:26;0.97;;;0.83;;
4634;SDS011;2330;48.158;11.816;2023-04-22T10:29:54;1.27;;;1.13;;
4634;SDS011;2330;48.158;11.816;2023-04-22T10:32:23;0.80;;;0.70;;
4634;SDS011;2330;48.158;11.816;2023-04-22T10:35:05;1.47;;;0.90;;
4634;SDS011;2330;48.158;11.816;2023-04-22T10:37:34;2.63;;;1.03;;
4634;SDS011;2330;48.158;11.816;2023-04-22T10:40:09;0.97;;;0.87;;
4634;SDS011;2330;48.158;11.816;2023-04-22T10:42:39;0.60;;;0.60;;
4634;SDS011;2330;48.158;11.816;2023-04-22T10:45:06;1.77;;;0.90;;
4634;SDS011;2330;48.158;11.816;2023-04-22T10:47:37;1.67;;;0.90;;
4634;SDS011;2330;48.158;11.816;2023-04-22T10:50:08;0.60;;;0.60;;
4634;SDS011;2330;48.158;11.816;2023-04-22T10:52:35;1.03;;;0.70;;
4634;SDS011;2330;48.158;11.816;2023-04-22T10:55:02;1.10;;;0.70;;
4634;SDS011;2330;48.158;11.816;2023-04-22T10:57:39;0.80;;;0.80;;
4634;SDS011;2330;48.158;11.816;2023-04-22T11:00:18;1.20;;;0.93;;
4634;SDS011;2330;48.158;11.816;2023-04-22T11:02:45;1.10;;;0.80;;
4634;SDS011;2330;48.158;11.816;2023-04-22T11:05:18;1.47;;;0.77;;
4634;SDS011;2330;48.158;11.816;2023-04-22T11:07:49;0.97;;;0.87;;
4634;SDS011;2330;48.158;11.816;2023-04-22T11:10:40;0.80;;;0.77;;
4634;SDS011;2330;48.158;11.816;2023-04-22T11:13:11;1.00;;;0.90;;
4634;SDS011;2330;48.158;11.816;2023-04-22T11:15:45;3.50;;;1.10;;
4634;SDS011;2330;48.158;11.816;2023-04-22T11:18:17;1.30;;;0.80;;
4634;SDS011;2330;48.158;11.816;2023-04-22T11:20:46;2.50;;;1.07;;
4634;SDS011;2330;48.158;11.816;2023-04-22T11:23:35;1.57;;;1.00;;
4634;SDS011;2330;48.158;11.816;2023-04-22T11:26:03;1.40;;;0.90;;
4634;SDS011;2330;48.158;11.816;2023-04-22T11:28:31;0.90;;;0.90;;
4634;SDS011;2330;48.158;11.816;2023-04-22T11:31:04;1.67;;;0.80;;
4634;SDS011;2330;48.158;11.816;2023-04-22T11:33:33;0.80;;;0.80;;
4634;SDS011;2330;48.158;11.816;2023-04-22T11:36:00;1.33;;;0.90;;
4634;SDS011;2330;48.158;11.816;2023-04-22T11:38:27;1.33;;;0.90;;
4634;SDS011;2330;48.158;11.816;2023-04-22T11:40:54;0.80;;;0.73;;
4634;SDS011;2330;48.158;11.816;2023-04-22T11:43:23;0.97;;;0.87;;
4634;SDS011;2330;48.158;11.816;2023-04-22T11:45:50;5.80;;;1.03;;
4634;SDS011;2330;48.158;11.816;2023-04-22T11:48:17;2.57;;;0.90;;
4634;SDS011;2330;48.158;11.816;2023-04-22T11:50:43;0.73;;;0.73;;
4634;SDS011;2330;48.158;11.816;2023-04-22T11:53:17;1.17;;;0.80;;
4634;SDS011;2330;48.158;11.816;2023-04-22T11:55:46;1.00;;;0.87;;
4634;SDS011;2330;48.158;11.816;2023-04-22T11:58:19;1.63;;;0.70;;
4634;SDS011;2330;48.158;11.816;2023-04-22T12:00:51;1.33;;;1.23;;
4634;SDS011;2330;48.158;11.816;2023-04-22T12:03:20;0.80;;;0.70;;
4634;SDS011;2330;48.158;11.816;2023-04-22T12:08:22;5.53;;;0.80;;
4634;SDS011;2330;48.158;11.816;2023-04-22T12:11:00;0.90;;;0.80;;
4634;SDS011;2330;48.158;11.816;2023-04-22T12:13:29;0.87;;;0.87;;
4634;SDS011;2330;48.158;11.816;2023-04-22T12:15:59;0.73;;;0.73;;
4634;SDS011;2330;48.158;11.816;2023-04-22T12:18:34;8.57;;;1.20;;
4634;SDS011;2330;48.158;11.816;2023-04-22T12:26:15;0.80;;;0.73;;
4634;SDS011;2330;48.158;11.816;2023-04-22T12:28:44;3.03;;;1.00;;
4634;SDS011;2330;48.158;11.816;2023-04-22T12:31:14;0.90;;;0.57;;
4634;SDS011;2330;48.158;11.816;2023-04-22T12:33:42;1.00;;;0.70;;
4634;SDS011;2330;48.158;11.816;2023-04-22T12:36:10;0.90;;;0.80;;
4634;SDS011;2330;48.158;11.816;2023-04-22T12:38:37;0.83;;;0.80;;
4634;SDS011;2330;48.158;11.816;2023-04-22T12:41:04;0.80;;;0.70;;
4634;SDS011;2330;48.158;11.816;2023-04-22T12:43:32;1.93;;;1.10;;
4634;SDS011;2330;48.158;11.816;2023-04-22T12:46:01;0.90;;;0.80;;
4634;SDS011;2330;48.158;11.816;2023-04-22T12:48:29;1.03;;;0.93;;
4634;SDS011;2330;48.158;11.816;2023-04-22T12:50:56;1.67;;;1.30;;
4634;SDS011;2330;48.158;11.816;2023-04-22T12:53:24;1.87;;;1.33;;
4634;SDS011;2330;48.158;11.816;2023-04-22T12:55:52;6.73;;;1.20;;
4634;SDS011;2330;48.158;11.816;2023-04-22T12:58:18;2.77;;;1.23;;
4634;SDS011;2330;48.158;11.816;2023-04-22T13:00:48;2.97;;;1.03;;
4634;SDS011;2330;48.158;11.816;2023-04-22T13:03:15;1.10;;;0.90;;
4634;SDS011;2330;48.158;11.816;2023-04-22T13:05:44;1.30;;;1.00;;
4634;SDS011;2330;48.158;11.816;2023-04-22T13:08:11;2.60;;;1.10;;
4634;SDS011;2330;48.158;11.816;2023-04-22T13:10:38;1.00;;;1.00;;
4634;SDS011;2330;48.158;11.816;2023-04-22T13:13:04;1.87;;;1.13;;
4634;SDS011;2330;48.158;11.816;2023-04-22T13:15:43;3.00;;;1.10;;
4634;SDS011;2330;48.158;11.816;2023-04-22T13:18:10;5.70;;;0.80;;
4634;SDS011;2330;48.158;11.816;2023-04-22T13:20:37;1.70;;;1.40;;
4634;SDS011;2330;48.158;11.816;2023-04-22T13:23:05;0.80;;;0.80;;
4634;SDS011;2330;48.158;11.816;2023-04-22T13:25:31;1.50;;;1.27;;
4634;SDS011;2330;48.158;11.816;2023-04-22T13:27:58;0.93;;;0.83;;
4634;SDS011;2330;48.158;11.816;2023-04-22T13:30:25;1.23;;;1.13;;
4634;SDS011;2330;48.158;11.816;2023-04-22T13:32:52;1.67;;;1.20;;
4634;SDS011;2330;48.158;11.816;2023-04-22T13:35:19;1.53;;;1.30;;
4634;SDS011;2330;48.158;11.816;2023-04-22T13:37:46;2.40;;;1.13;;
4634;SDS011;2330;48.158;11.816;2023-04-22T13:40:12;1.93;;;0.80;;
4634;SDS011;2330;48.158;11.816;2023-04-22T13:42:39;1.30;;;1.20;;
4634;SDS011;2330;48.158;11.816;2023-04-22T13:45:06;1.20;;;0.90;;
4634;SDS011;2330;48.158;11.816;2023-04-22T13:47:33;1.30;;;1.20;;
4634;SDS011;2330;48.158;11.816;2023-04-22T13:50:00;1.20;;;1.10;;
4634;SDS011;2330;48.158;11.816;2023-04-22T13:52:27;4.07;;;1.20;;
4634;SDS011;2330;48.158;11.816;2023-04-22T13:54:54;5.43;;;1.40;;
4634;SDS011;2330;48.158;11.816;2023-04-22T13:57:21;2.17;;;0.90;;
4634;SDS011;2330;48.158;11.816;2023-04-22T13:59:48;1.20;;;1.03;;
4634;SDS011;2330;48.158;11.816;2023-04-22T14:02:15;1.73;;;1.20;;
4634;SDS011;2330;48.158;11.816;2023-04-22T14:04:43;1.20;;;1.10;;
4634;SDS011;2330;48.158;11.816;2023-04-22T14:07:09;2.83;;;1.33;;
4634;SDS011;2330;48.158;11.816;2023-04-22T14:09:37;1.17;;;1.07;;
4634;SDS011;2330;48.158;11.816;2023-04-22T14:12:05;1.10;;;0.80;;
4634;SDS011;2330;48.158;11.816;2023-04-22T14:14:32;1.60;;;1.30;;
4634;SDS011;2330;48.158;11.816;2023-04-22T14:16:59;1.87;;;1.40;;
4634;SDS011;2330;48.158;11.816;2023-04-22T14:19:26;1.40;;;0.93;;
4634;SDS011;2330;48.158;11.816;2023-04-22T14:21:55;1.23;;;1.13;;
4634;SDS011;2330;48.158;11.816;2023-04-22T14:24:22;1.17;;;1.07;;
4634;SDS011;2330;48.158;11.816;2023-04-22T14:26:50;1.97;;;1.00;;
4634;SDS011;2330;48.158;11.816;2023-04-22T14:29:20;1.63;;;1.03;;
4634;SDS011;2330;48.158;11.816;2023-04-22T14:31:46;1.20;;;1.10;;
4634;SDS011;2330;48.158;11.816;2023-04-22T14:34:15;1.20;;;1.10;;
4634;SDS011;2330;48.158;11.816;2023-04-22T14:36:42;1.90;;;1.13;;
4634;SDS011;2330;48.158;11.816;2023-04-22T14:39:09;2.83;;;1.93;;
4634;SDS011;2330;48.158;11.816;2023-04-22T14:41:36;1.27;;;1.00;;
4634;SDS011;2330;48.158;11.816;2023-04-22T14:44:02;3.83;;;1.57;;
4634;SDS011;2330;48.158;11.816;2023-04-22T14:46:29;1.30;;;1.20;;
4634;SDS011;2330;48.158;11.816;2023-04-22T14:48:56;3.40;;;1.23;;
4634;SDS011;2330;48.158;11.816;2023-04-22T14:51:22;1.83;;;1.20;;
4634;SDS011;2330;48.158;11.816;2023-04-22T14:53:49;3.13;;;1.70;;
4634;SDS011;2330;48.158;11.816;2023-04-22T14:56:16;1.33;;;1.23;;
4634;SDS011;2330;48.158;11.816;2023-04-22T14:58:44;1.87;;;1.00;;
4634;SDS011;2330;48.158;11.816;2023-04-22T15:01:10;1.63;;;1.27;;
4634;SDS011;2330;48.158;11.816;2023-04-22T15:03:37;1.30;;;0.90;;
4634;SDS011;2330;48.158;11.816;2023-04-22T15:06:04;1.50;;;1.37;;
4634;SDS011;2330;48.158;11.816;2023-04-22T15:08:31;1.50;;;0.97;;
4634;SDS011;2330;48.158;11.816;2023-04-22T15:10:57;6.33;;;1.00;;
4634;SDS011;2330;48.158;11.816;2023-04-22T15:13:25;1.10;;;0.80;;